Time;durP1;ratioP1;P1;durP2;ratioP2;P2;SDS_P1;SDS_P2;PMS_P1;PMS_P2;Temp;Humidity;BMP_temperature;BMP_pressure;BME280_temperature;BME280_humidity;BME280_pressure;Samples;Min_cycle;Max_cycle;Signal;HPM_P1;HPM_P2
2022/12/13 00:00:20;;;;;;;18.80;9.10;;;;;;;;;;4935942;29;20114;-73
2022/12/13 00:02:46;;;;;;;15.93;9.35;;;;;;;;;;4928890;29;20116;-73
2022/12/13 00:05:13;;;;;;;23.13;10.50;;;;;;;;;;4929839;29;20367;-75
2022/12/13 00:07:38;;;;;;;15.30;8.93;;;;;;;;;;4934201;29;20043;-74
2022/12/13 00:10:05;;;;;;;18.55;8.65;;;;;;;;;;4934794;29;20036;-75
2022/12/13 00:12:32;;;;;;;14.52;8.63;;;;;;;;;;4934458;29;20062;-75
2022/12/13 00:14:58;;;;;;;20.48;8.88;;;;;;;;;;4929272;29;20494;-73
2022/12/13 00:17:24;;;;;;;14.25;8.10;;;;;;;;;;4932981;29;20061;-74
2022/12/13 00:19:50;;;;;;;20.80;8.05;;;;;;;;;;4935874;29;20039;-74
2022/12/13 00:22:17;;;;;;;22.48;9.55;;;;;;;;;;4936005;29;20032;-72
2022/12/13 00:24:44;;;;;;;20.20;10.30;;;;;;;;;;4934230;29;20089;-73
2022/12/13 00:27:11;;;;;;;18.58;9.35;;;;;;;;;;4935215;29;20046;-74
2022/12/13 00:29:37;;;;;;;16.55;8.95;;;;;;;;;;4949761;29;20509;-75
2022/12/13 00:32:03;;;;;;;17.63;9.88;;;;;;;;;;4939089;28;20397;-75
2022/12/13 00:34:29;;;;;;;19.02;8.90;;;;;;;;;;4933300;29;20347;-73
2022/12/13 00:36:57;;;;;;;14.57;8.18;;;;;;;;;;4935036;29;20043;-73
2022/12/13 00:39:25;;;;;;;16.77;8.20;;;;;;;;;;4935082;29;20028;-74
2022/12/13 00:41:51;;;;;;;15.57;8.20;;;;;;;;;;4950072;29;20152;-74
2022/12/13 00:44:18;;;;;;;13.95;8.10;;;;;;;;;;4934187;29;20126;-75
2022/12/13 00:46:44;;;;;;;17.70;8.43;;;;;;;;;;4935260;29;20098;-74
2022/12/13 00:49:12;;;;;;;18.02;7.68;;;;;;;;;;4933341;29;20036;-73
2022/12/13 00:51:38;;;;;;;12.15;7.80;;;;;;;;;;4934497;29;20038;-74
2022/12/13 00:54:04;;;;;;;11.18;6.22;;;;;;;;;;4934157;29;20382;-74
2022/12/13 00:56:32;;;;;;;15.13;6.15;;;;;;;;;;4930233;29;20500;-74
2022/12/13 00:58:58;;;;;;;11.40;5.25;;;;;;;;;;4934999;29;20351;-74
2022/12/13 01:01:27;;;;;;;7.15;4.13;;;;;;;;;;4934345;29;20034;-73
2022/12/13 01:03:54;;;;;;;9.52;3.40;;;;;;;;;;4934699;29;20489;-72
2022/12/13 01:06:26;;;;;;;8.45;4.00;;;;;;;;;;4934202;29;20040;-74
2022/12/13 01:08:52;;;;;;;9.25;3.10;;;;;;;;;;4933638;29;20540;-74
2022/12/13 01:11:18;;;;;;;6.45;2.95;;;;;;;;;;4933245;29;20038;-73
2022/12/13 01:13:44;;;;;;;4.93;2.70;;;;;;;;;;4948606;29;20044;-73
2022/12/13 01:16:11;;;;;;;7.65;2.00;;;;;;;;;;4933579;29;20034;-73
2022/12/13 01:18:39;;;;;;;4.60;1.60;;;;;;;;;;4929717;29;20043;-73
2022/12/13 01:21:07;;;;;;;4.43;1.63;;;;;;;;;;4933417;29;20057;-73
2022/12/13 01:23:33;;;;;;;7.13;2.10;;;;;;;;;;4934838;29;20051;-74
2022/12/13 01:26:06;;;;;;;7.22;2.00;;;;;;;;;;4934215;29;20039;-73
2022/12/13 01:28:32;;;;;;;4.32;1.85;;;;;;;;;;4933485;29;20071;-74
2022/12/13 01:31:01;;;;;;;3.65;1.50;;;;;;;;;;4933760;29;20044;-75
2022/12/13 01:33:28;;;;;;;5.15;1.63;;;;;;;;;;4930205;29;20278;-73
2022/12/13 01:35:54;;;;;;;2.80;1.25;;;;;;;;;;4924818;29;20044;-73
2022/12/13 01:38:20;;;;;;;2.22;1.20;;;;;;;;;;4932287;29;20051;-73
2022/12/13 01:40:56;;;;;;;4.95;1.73;;;;;;;;;;4932392;29;20040;-74
2022/12/13 01:43:35;;;;;;;4.85;1.73;;;;;;;;;;4933861;29;20038;-73
2022/12/13 01:46:02;;;;;;;4.60;1.63;;;;;;;;;;4932560;29;20031;-72
2022/12/13 01:48:32;;;;;;;5.03;2.00;;;;;;;;;;4923676;29;20044;-72
2022/12/13 01:51:02;;;;;;;6.07;2.17;;;;;;;;;;4932918;29;20031;-74
2022/12/13 01:53:32;;;;;;;6.07;2.83;;;;;;;;;;4931550;29;20576;-73
2022/12/13 01:56:07;;;;;;;3.47;1.48;;;;;;;;;;4931453;29;21995;-73
2022/12/13 01:58:35;;;;;;;5.82;1.58;;;;;;;;;;4934223;29;20039;-72
2022/12/13 02:01:01;;;;;;;5.47;2.45;;;;;;;;;;4927124;28;20048;-73
2022/12/13 02:03:28;;;;;;;5.88;2.40;;;;;;;;;;4933464;29;20087;-74
2022/12/13 02:06:01;;;;;;;5.30;2.30;;;;;;;;;;4933838;29;20036;-73
2022/12/13 02:08:28;;;;;;;6.65;2.17;;;;;;;;;;4934002;29;20047;-73
2022/12/13 02:10:55;;;;;;;11.27;2.53;;;;;;;;;;4933615;29;20461;-73
2022/12/13 02:13:21;;;;;;;4.80;2.42;;;;;;;;;;4933770;29;20119;-73
2022/12/13 02:16:42;;;;;;;10.40;2.58;;;;;;;;;;4933882;29;20043;-73
2022/12/13 02:19:34;;;;;;;8.77;3.58;;;;;;;;;;4912608;29;20575;-73
2022/12/13 02:22:14;;;;;;;7.75;2.65;;;;;;;;;;4933096;29;20101;-74
2022/12/13 02:24:55;;;;;;;8.35;2.95;;;;;;;;;;4929590;29;20060;-73
2022/12/13 02:27:40;;;;;;;5.90;2.75;;;;;;;;;;4931374;29;20047;-74
2022/12/13 02:30:32;;;;;;;10.25;2.92;;;;;;;;;;4925055;29;20433;-73
2022/12/13 02:33:19;;;;;;;9.25;3.50;;;;;;;;;;4932861;29;20082;-73
2022/12/13 02:36:05;;;;;;;8.77;3.05;;;;;;;;;;4934100;29;20039;-73
2022/12/13 02:38:52;;;;;;;9.43;3.05;;;;;;;;;;4933551;29;20048;-73
2022/12/13 02:41:22;;;;;;;6.82;2.63;;;;;;;;;;4933053;29;20087;-74
2022/12/13 02:44:09;;;;;;;8.63;2.50;;;;;;;;;;4932714;29;20501;-73
2022/12/13 02:46:40;;;;;;;5.75;2.70;;;;;;;;;;4931521;29;20040;-74
2022/12/13 02:49:09;;;;;;;6.15;2.40;;;;;;;;;;4931119;29;20032;-73
2022/12/13 02:51:38;;;;;;;7.30;2.45;;;;;;;;;;4931733;29;20062;-73
2022/12/13 02:54:04;;;;;;;6.20;2.13;;;;;;;;;;4931623;28;20056;-73
2022/12/13 02:56:31;;;;;;;8.40;2.50;;;;;;;;;;4934161;29;20036;-73
2022/12/13 02:59:00;;;;;;;7.13;2.53;;;;;;;;;;4934361;29;20034;-73
2022/12/13 03:01:32;;;;;;;5.50;2.50;;;;;;;;;;4937523;29;20043;-73
2022/12/13 03:04:16;;;;;;;7.82;2.28;;;;;;;;;;4937914;29;20444;-73
2022/12/13 03:06:53;;;;;;;8.45;3.00;;;;;;;;;;4936580;29;20370;-74
2022/12/13 03:09:43;;;;;;;8.88;2.63;;;;;;;;;;4936539;29;20043;-73
2022/12/13 03:15:20;;;;;;;5.57;2.63;;;;;;;;;;4936666;29;20486;-73
2022/12/13 03:18:14;;;;;;;8.38;2.78;;;;;;;;;;4936723;29;20115;-73
2022/12/13 03:21:01;;;;;;;6.55;2.45;;;;;;;;;;4933349;29;20048;-74
2022/12/13 03:23:27;;;;;;;8.65;2.60;;;;;;;;;;4933715;29;20134;-74
2022/12/13 03:26:00;;;;;;;9.60;2.92;;;;;;;;;;4936906;29;20433;-74
2022/12/13 03:28:26;;;;;;;8.65;3.05;;;;;;;;;;4936557;29;20527;-73
2022/12/13 03:30:52;;;;;;;6.10;2.65;;;;;;;;;;4933780;29;20504;-73
2022/12/13 03:33:18;;;;;;;7.22;2.72;;;;;;;;;;4936627;29;20039;-73
2022/12/13 03:35:44;;;;;;;7.35;3.13;;;;;;;;;;4937202;29;20616;-73
2022/12/13 03:38:12;;;;;;;12.27;3.35;;;;;;;;;;4930235;29;20481;-74
2022/12/13 03:40:38;;;;;;;13.05;5.20;;;;;;;;;;4937064;29;20118;-73
2022/12/13 03:43:06;;;;;;;23.23;7.50;;;;;;;;;;4936539;29;20126;-74
2022/12/13 03:45:31;;;;;;;21.88;7.10;;;;;;;;;;4936469;29;20042;-73
2022/12/13 03:47:57;;;;;;;17.60;6.10;;;;;;;;;;4930766;29;20031;-73
2022/12/13 03:50:24;;;;;;;28.67;6.00;;;;;;;;;;4936415;29;20114;-73
2022/12/13 03:52:50;;;;;;;17.80;5.05;;;;;;;;;;4935053;29;20103;-72
2022/12/13 03:55:17;;;;;;;17.90;3.70;;;;;;;;;;4929006;29;20103;-74
2022/12/13 03:57:43;;;;;;;12.82;2.53;;;;;;;;;;4936407;29;20106;-74
2022/12/13 04:00:10;;;;;;;9.15;3.20;;;;;;;;;;4936385;29;20047;-73
2022/12/13 04:02:38;;;;;;;4.68;2.42;;;;;;;;;;4936436;29;20047;-73
2022/12/13 04:05:05;;;;;;;7.40;2.65;;;;;;;;;;4936052;29;20035;-73
2022/12/13 04:07:33;;;;;;;8.85;2.75;;;;;;;;;;4935185;29;20496;-73
2022/12/13 04:09:59;;;;;;;7.65;2.30;;;;;;;;;;4935969;29;20115;-70
2022/12/13 04:15:09;;;;;;;4.38;2.20;;;;;;;;;;4935231;29;20515;-73
2022/12/13 04:17:35;;;;;;;13.95;3.28;;;;;;;;;;4933199;29;20036;-73
2022/12/13 04:20:01;;;;;;;11.27;2.47;;;;;;;;;;4948099;29;20040;-74
2022/12/13 04:22:27;;;;;;;13.85;2.53;;;;;;;;;;4935948;29;20023;-74
2022/12/13 04:24:53;;;;;;;6.50;2.15;;;;;;;;;;4918220;29;20040;-73
2022/12/13 04:27:19;;;;;;;9.32;2.92;;;;;;;;;;4917543;29;20509;-73
2022/12/13 04:29:44;;;;;;;6.47;1.70;;;;;;;;;;4918003;29;20351;-73
2022/12/13 04:32:10;;;;;;;3.20;1.60;;;;;;;;;;4931820;29;20115;-73
2022/12/13 04:34:36;;;;;;;5.53;2.25;;;;;;;;;;4916922;29;20035;-72
2022/12/13 04:37:02;;;;;;;12.27;2.70;;;;;;;;;;4917489;29;20038;-74
2022/12/13 04:39:28;;;;;;;8.32;3.03;;;;;;;;;;4917649;29;20043;-74
2022/12/13 04:41:54;;;;;;;8.57;3.60;;;;;;;;;;4916356;29;20131;-74
2022/12/13 04:44:20;;;;;;;11.55;4.22;;;;;;;;;;4918001;29;20107;-73
2022/12/13 04:46:46;;;;;;;8.73;4.03;;;;;;;;;;4916126;29;20134;-74
2022/12/13 04:49:11;;;;;;;14.93;5.18;;;;;;;;;;4917173;29;20118;-74
2022/12/13 04:51:37;;;;;;;18.40;4.70;;;;;;;;;;4917467;29;20458;-73
2022/12/13 04:54:03;;;;;;;26.55;10.95;;;;;;;;;;4915926;29;20051;-73
2022/12/13 04:56:29;;;;;;;16.80;8.00;;;;;;;;;;4917016;29;20103;-73
2022/12/13 04:58:55;;;;;;;18.77;6.70;;;;;;;;;;4931683;29;20067;-73
2022/12/13 05:01:21;;;;;;;13.95;6.03;;;;;;;;;;4916277;29;20498;-73
2022/12/13 05:03:47;;;;;;;13.00;5.85;;;;;;;;;;4936265;29;20046;-73
2022/12/13 05:06:13;;;;;;;19.65;6.93;;;;;;;;;;4934821;29;20525;-74
2022/12/13 05:08:40;;;;;;;20.27;6.63;;;;;;;;;;4935864;29;20111;-73
2022/12/13 05:11:08;;;;;;;15.68;5.28;;;;;;;;;;4935750;29;20134;-74
2022/12/13 05:13:34;;;;;;;17.48;6.10;;;;;;;;;;4935599;29;20036;-73
2022/12/13 05:16:03;;;;;;;9.15;4.72;;;;;;;;;;4934151;29;20028;-73
2022/12/13 05:18:29;;;;;;;18.27;5.57;;;;;;;;;;4935638;29;20107;-72
2022/12/13 05:20:55;;;;;;;12.65;5.38;;;;;;;;;;4935497;29;20039;-74
2022/12/13 05:23:23;;;;;;;17.50;6.57;;;;;;;;;;4935372;29;20054;-73
2022/12/13 05:25:50;;;;;;;18.15;6.68;;;;;;;;;;4936328;29;20040;-74
2022/12/13 05:28:16;;;;;;;19.08;6.95;;;;;;;;;;4936425;29;20043;-73
2022/12/13 05:30:43;;;;;;;14.27;6.93;;;;;;;;;;4937410;28;20500;-74
2022/12/13 05:33:10;;;;;;;18.08;8.25;;;;;;;;;;4937218;29;20032;-73
2022/12/13 05:35:36;;;;;;;18.35;8.60;;;;;;;;;;4937040;29;20458;-73
2022/12/13 05:38:02;;;;;;;14.98;6.85;;;;;;;;;;4937021;29;20405;-74
2022/12/13 05:40:30;;;;;;;25.90;10.50;;;;;;;;;;4922326;29;20095;-73
2022/12/13 05:42:57;;;;;;;34.60;10.75;;;;;;;;;;4916863;29;20111;-74
2022/12/13 05:45:24;;;;;;;15.52;7.57;;;;;;;;;;4916596;29;20044;-73
2022/12/13 05:47:50;;;;;;;13.15;6.10;;;;;;;;;;4915246;29;20032;-74
2022/12/13 05:50:16;;;;;;;29.48;8.48;;;;;;;;;;4916205;29;20055;-73
2022/12/13 05:52:44;;;;;;;15.38;6.50;;;;;;;;;;4916202;29;20111;-73
2022/12/13 05:55:10;;;;;;;15.13;6.20;;;;;;;;;;4916191;29;20107;-74
2022/12/13 05:57:37;;;;;;;26.55;7.95;;;;;;;;;;4916030;29;20095;-74
2022/12/13 06:00:05;;;;;;;23.95;8.50;;;;;;;;;;4915760;29;20434;-74
2022/12/13 06:02:42;;;;;;;13.02;6.90;;;;;;;;;;4915927;29;20431;-73
2022/12/13 06:05:10;;;;;;;20.13;7.80;;;;;;;;;;4916236;29;20043;-73
2022/12/13 06:07:36;;;;;;;24.63;7.18;;;;;;;;;;4915894;29;20413;-74
2022/12/13 06:10:04;;;;;;;21.02;7.90;;;;;;;;;;4914081;29;20036;-74
2022/12/13 06:12:31;;;;;;;22.10;6.90;;;;;;;;;;4916395;29;20032;-73
2022/12/13 06:14:57;;;;;;;14.85;6.18;;;;;;;;;;4915981;29;20059;-72
2022/12/13 06:17:24;;;;;;;11.40;5.07;;;;;;;;;;4916128;29;20078;-74
2022/12/13 06:19:52;;;;;;;10.18;4.38;;;;;;;;;;4915876;29;20040;-73
2022/12/13 06:22:19;;;;;;;17.55;5.47;;;;;;;;;;4923197;29;20082;-73
2022/12/13 06:24:44;;;;;;;25.60;6.28;;;;;;;;;;4934860;28;20044;-74
2022/12/13 06:27:11;;;;;;;14.98;5.93;;;;;;;;;;4934761;29;20036;-74
2022/12/13 06:29:38;;;;;;;29.30;7.50;;;;;;;;;;4935004;29;20035;-74
2022/12/13 06:32:04;;;;;;;17.00;6.13;;;;;;;;;;4938719;29;20030;-73
2022/12/13 06:34:33;;;;;;;8.77;4.15;;;;;;;;;;4938193;29;20032;-74
2022/12/13 06:37:02;;;;;;;19.98;5.30;;;;;;;;;;4938105;29;20038;-73
2022/12/13 06:39:28;;;;;;;10.30;5.35;;;;;;;;;;4936611;29;20035;-73
2022/12/13 06:41:55;;;;;;;28.50;6.85;;;;;;;;;;4937770;29;20035;-73
2022/12/13 06:44:21;;;;;;;18.13;5.28;;;;;;;;;;4938113;29;20044;-72
2022/12/13 06:46:47;;;;;;;26.63;7.07;;;;;;;;;;4935413;29;20039;-73
2022/12/13 06:49:13;;;;;;;21.38;7.00;;;;;;;;;;4938338;29;20482;-72
2022/12/13 06:51:39;;;;;;;21.20;8.88;;;;;;;;;;4938497;29;20063;-73
2022/12/13 06:54:06;;;;;;;19.67;7.45;;;;;;;;;;4938132;29;20118;-74
2022/12/13 06:56:31;;;;;;;23.27;8.60;;;;;;;;;;4939019;29;20036;-73
2022/12/13 06:58:58;;;;;;;28.42;9.35;;;;;;;;;;4938366;29;20038;-73
2022/12/13 07:01:26;;;;;;;16.45;6.85;;;;;;;;;;4936951;29;20031;-73
2022/12/13 07:03:56;;;;;;;25.00;7.30;;;;;;;;;;4937617;29;20046;-73
2022/12/13 07:06:23;;;;;;;33.55;8.45;;;;;;;;;;4937966;29;20149;-73
2022/12/13 07:08:55;;;;;;;21.15;7.00;;;;;;;;;;4936627;29;20118;-73
2022/12/13 07:11:24;;;;;;;13.95;6.90;;;;;;;;;;4936894;29;20040;-74
2022/12/13 07:13:50;;;;;;;19.48;5.65;;;;;;;;;;4935909;29;20152;-74
2022/12/13 07:16:17;;;;;;;6.75;4.20;;;;;;;;;;4934994;29;20620;-74
2022/12/13 07:18:44;;;;;;;10.75;4.72;;;;;;;;;;4936769;29;20120;-74
2022/12/13 07:21:13;;;;;;;16.05;4.50;;;;;;;;;;4932436;28;20036;-73
2022/12/13 07:23:39;;;;;;;18.45;5.00;;;;;;;;;;4934149;29;20055;-73
2022/12/13 07:26:07;;;;;;;18.30;5.65;;;;;;;;;;4931829;28;20032;-73
2022/12/13 07:28:36;;;;;;;16.35;6.80;;;;;;;;;;4936035;28;20506;-73
2022/12/13 07:31:05;;;;;;;20.23;5.35;;;;;;;;;;4951101;29;20091;-73
2022/12/13 07:33:32;;;;;;;20.95;7.53;;;;;;;;;;4937177;29;20043;-75
2022/12/13 07:36:00;;;;;;;21.40;5.82;;;;;;;;;;4935812;29;20031;-76
2022/12/13 07:38:26;;;;;;;27.85;8.45;;;;;;;;;;4936809;29;20430;-75
2022/12/13 07:40:55;;;;;;;25.80;7.68;;;;;;;;;;4935827;29;20036;-77
2022/12/13 07:43:21;;;;;;;14.50;6.60;;;;;;;;;;4934583;29;20024;-78
2022/12/13 07:45:48;;;;;;;15.50;5.25;;;;;;;;;;4934479;29;20032;-76
2022/12/13 07:48:16;;;;;;;19.48;6.65;;;;;;;;;;4936016;29;20146;-77
2022/12/13 07:50:44;;;;;;;18.52;7.63;;;;;;;;;;4935479;29;20037;-77
2022/12/13 07:53:10;;;;;;;27.48;11.02;;;;;;;;;;4932510;29;20111;-74
2022/12/13 07:55:37;;;;;;;18.67;8.43;;;;;;;;;;4932728;29;20131;-76
2022/12/13 07:58:04;;;;;;;11.93;5.82;;;;;;;;;;4934079;28;20511;-75
2022/12/13 08:00:32;;;;;;;8.63;5.00;;;;;;;;;;4935945;29;20050;-76
2022/12/13 08:02:59;;;;;;;11.32;5.13;;;;;;;;;;4932655;29;20028;-77
2022/12/13 08:05:25;;;;;;;14.13;4.85;;;;;;;;;;4932789;29;20519;-76
2022/12/13 08:07:51;;;;;;;9.23;4.65;;;;;;;;;;4936997;29;20047;-77
2022/12/13 08:10:18;;;;;;;11.80;4.85;;;;;;;;;;4935836;29;20087;-74
2022/12/13 08:12:44;;;;;;;12.23;4.57;;;;;;;;;;4918199;29;20342;-76
2022/12/13 08:15:13;;;;;;;9.40;3.92;;;;;;;;;;4928647;29;20039;-76
2022/12/13 08:17:39;;;;;;;7.72;4.25;;;;;;;;;;4934306;29;20036;-76
2022/12/13 08:20:05;;;;;;;12.52;5.97;;;;;;;;;;4933861;29;20043;-76
2022/12/13 08:22:33;;;;;;;8.77;5.47;;;;;;;;;;4935240;28;20082;-75
2022/12/13 08:24:59;;;;;;;9.02;5.20;;;;;;;;;;4929194;29;20040;-76
2022/12/13 08:27:26;;;;;;;12.02;4.60;;;;;;;;;;4931708;29;20046;-75
2022/12/13 08:29:52;;;;;;;7.57;4.82;;;;;;;;;;4933180;28;20454;-75
2022/12/13 08:32:18;;;;;;;10.75;5.40;;;;;;;;;;4933945;29;20511;-75
2022/12/13 08:34:45;;;;;;;19.70;6.10;;;;;;;;;;4935183;28;20114;-74
2022/12/13 08:37:11;;;;;;;13.52;6.40;;;;;;;;;;4934787;29;20050;-75
2022/12/13 08:39:38;;;;;;;10.60;5.43;;;;;;;;;;4934694;29;20035;-72
2022/12/13 08:42:16;;;;;;;7.97;6.10;;;;;;;;;;4933254;29;20036;-74
2022/12/13 08:44:42;;;;;;;8.98;4.88;;;;;;;;;;4933177;29;20048;-72
2022/12/13 08:47:08;;;;;;;10.13;5.43;;;;;;;;;;4933097;29;20110;-74
2022/12/13 08:49:34;;;;;;;7.40;4.82;;;;;;;;;;4932981;29;21049;-72
2022/12/13 08:52:00;;;;;;;10.10;4.82;;;;;;;;;;4930867;29;20111;-73
2022/12/13 08:54:26;;;;;;;12.43;5.53;;;;;;;;;;4925394;28;20149;-73
2022/12/13 08:56:52;;;;;;;8.60;4.47;;;;;;;;;;4928229;29;20051;-73
2022/12/13 08:59:18;;;;;;;10.73;4.97;;;;;;;;;;4933388;29;20027;-73
2022/12/13 09:01:44;;;;;;;8.07;4.97;;;;;;;;;;4930356;29;20024;-75
2022/12/13 09:04:10;;;;;;;8.88;4.85;;;;;;;;;;4948109;29;20032;-73
2022/12/13 09:06:36;;;;;;;7.07;4.55;;;;;;;;;;4932372;29;20051;-75
2022/12/13 09:09:02;;;;;;;8.68;5.13;;;;;;;;;;4934776;28;20035;-77
2022/12/13 09:11:28;;;;;;;10.27;5.53;;;;;;;;;;4928073;28;20036;-73
2022/12/13 09:13:54;;;;;;;9.82;5.43;;;;;;;;;;4933424;29;20462;-74
2022/12/13 09:16:23;;;;;;;8.73;4.90;;;;;;;;;;4927517;29;20062;-74
2022/12/13 09:18:51;;;;;;;10.13;5.07;;;;;;;;;;4932487;29;20047;-73
2022/12/13 09:21:17;;;;;;;10.90;4.90;;;;;;;;;;4929228;29;20043;-74
2022/12/13 09:23:44;;;;;;;11.18;5.55;;;;;;;;;;4930672;29;20379;-74
2022/12/13 09:26:12;;;;;;;9.73;5.47;;;;;;;;;;4931086;29;20032;-74
2022/12/13 09:28:39;;;;;;;13.80;5.57;;;;;;;;;;4933740;29;20462;-73
2022/12/13 09:31:08;;;;;;;16.13;5.78;;;;;;;;;;4933421;29;20036;-73
2022/12/13 09:33:36;;;;;;;21.17;6.35;;;;;;;;;;4931064;29;20046;-73
2022/12/13 09:36:07;;;;;;;21.13;5.85;;;;;;;;;;4930263;29;20070;-74
2022/12/13 09:38:35;;;;;;;22.23;5.18;;;;;;;;;;4933086;28;20150;-73
2022/12/13 09:41:20;;;;;;;11.38;5.00;;;;;;;;;;4929847;29;20034;-74
2022/12/13 09:43:55;;;;;;;12.30;5.93;;;;;;;;;;4930690;29;20494;-72
2022/12/13 09:46:41;;;;;;;27.83;6.05;;;;;;;;;;4927634;29;20032;-73
2022/12/13 09:49:21;;;;;;;24.55;5.85;;;;;;;;;;4932186;29;20051;-75
2022/12/13 09:51:52;;;;;;;24.13;5.95;;;;;;;;;;4930300;29;20489;-73
2022/12/13 09:54:21;;;;;;;18.52;6.78;;;;;;;;;;4933189;29;20039;-73
2022/12/13 09:56:51;;;;;;;18.88;6.10;;;;;;;;;;4931355;29;20047;-73
2022/12/13 09:59:29;;;;;;;20.00;5.45;;;;;;;;;;4928758;29;20067;-73
2022/12/13 10:02:02;;;;;;;14.85;6.03;;;;;;;;;;4932153;29;20043;-72
2022/12/13 10:04:28;;;;;;;30.23;9.68;;;;;;;;;;4932693;28;20486;-72
2022/12/13 10:06:58;;;;;;;25.00;7.47;;;;;;;;;;4930249;29;20038;-74
2022/12/13 10:09:26;;;;;;;41.92;9.55;;;;;;;;;;4931983;29;20044;-74
2022/12/13 10:11:53;;;;;;;14.68;7.85;;;;;;;;;;4930182;29;20020;-73
2022/12/13 10:14:32;;;;;;;17.52;8.52;;;;;;;;;;4932142;29;20059;-73
2022/12/13 10:17:04;;;;;;;12.73;7.28;;;;;;;;;;4927936;29;20194;-73
2022/12/13 10:19:42;;;;;;;25.90;8.52;;;;;;;;;;4932639;29;20374;-73
2022/12/13 10:22:12;;;;;;;21.23;8.40;;;;;;;;;;4928416;29;20040;-72
2022/12/13 10:24:52;;;;;;;16.38;6.95;;;;;;;;;;4916484;29;20052;-72
2022/12/13 10:27:26;;;;;;;15.68;6.40;;;;;;;;;;4933845;29;20370;-73
2022/12/13 10:30:05;;;;;;;11.38;6.78;;;;;;;;;;4932472;29;20055;-73
2022/12/13 10:32:41;;;;;;;17.50;8.32;;;;;;;;;;4933809;29;20044;-73
2022/12/13 10:35:29;;;;;;;15.07;7.90;;;;;;;;;;4931117;29;20119;-74
2022/12/13 10:37:59;;;;;;;30.13;8.35;;;;;;;;;;4932660;29;20031;-75
2022/12/13 10:40:37;;;;;;;16.45;8.07;;;;;;;;;;4931608;29;20095;-75
2022/12/13 10:43:14;;;;;;;21.98;9.48;;;;;;;;;;4933112;29;20032;-74
2022/12/13 10:45:42;;;;;;;19.40;8.07;;;;;;;;;;4933775;29;20458;-75
2022/12/13 10:48:21;;;;;;;28.15;8.82;;;;;;;;;;4944819;28;20500;-75
2022/12/13 10:51:04;;;;;;;26.77;7.90;;;;;;;;;;4913821;29;20036;-75
2022/12/13 10:53:37;;;;;;;23.25;7.63;;;;;;;;;;4932084;29;20039;-76
2022/12/13 10:56:03;;;;;;;13.02;6.55;;;;;;;;;;4932337;29;20039;-75
2022/12/13 10:58:40;;;;;;;15.15;8.05;;;;;;;;;;4929566;29;20071;-76
2022/12/13 11:01:27;;;;;;;15.77;8.13;;;;;;;;;;4933778;29;20500;-73
2022/12/13 11:04:03;;;;;;;23.23;7.90;;;;;;;;;;4912725;29;20036;-74
2022/12/13 11:06:44;;;;;;;13.70;6.95;;;;;;;;;;4918684;28;20059;-75
2022/12/13 11:09:24;;;;;;;18.00;7.30;;;;;;;;;;4930676;29;20074;-73
2022/12/13 11:11:52;;;;;;;15.18;5.95;;;;;;;;;;4929069;29;20040;-75
2022/12/13 11:14:22;;;;;;;13.52;4.88;;;;;;;;;;4932135;29;20039;-73
2022/12/13 11:16:58;;;;;;;8.65;5.00;;;;;;;;;;4934922;29;20048;-74
2022/12/13 11:19:36;;;;;;;8.80;4.78;;;;;;;;;;4935493;29;20126;-75
2022/12/13 11:22:03;;;;;;;6.68;3.60;;;;;;;;;;4930489;29;20066;-74
2022/12/13 11:24:39;;;;;;;7.38;3.83;;;;;;;;;;4940021;29;20669;-74
2022/12/13 11:27:36;;;;;;;8.18;3.65;;;;;;;;;;4961484;28;20040;-72
2022/12/13 11:30:15;;;;;;;10.73;3.83;;;;;;;;;;4922899;29;20031;-73
2022/12/13 11:32:59;;;;;;;12.52;4.20;;;;;;;;;;4933715;29;20039;-73
2022/12/13 11:35:35;;;;;;;9.32;3.85;;;;;;;;;;4933640;29;20051;-73
2022/12/13 11:38:15;;;;;;;9.70;3.50;;;;;;;;;;4935760;29;20055;-74
2022/12/13 11:40:45;;;;;;;11.10;4.05;;;;;;;;;;4934121;29;20035;-75
2022/12/13 11:43:36;;;;;;;13.73;3.67;;;;;;;;;;4934663;29;20042;-75
2022/12/13 11:46:12;;;;;;;8.43;3.40;;;;;;;;;;4927553;29;20099;-74
2022/12/13 11:48:50;;;;;;;5.93;3.55;;;;;;;;;;4930235;29;20043;-73
2022/12/13 11:51:26;;;;;;;8.90;4.03;;;;;;;;;;4933380;29;20067;-73
2022/12/13 11:54:15;;;;;;;12.75;4.70;;;;;;;;;;4932983;29;20043;-72
2022/12/13 11:56:43;;;;;;;13.32;5.15;;;;;;;;;;4917016;29;20064;-72
2022/12/13 11:59:15;;;;;;;13.43;5.15;;;;;;;;;;4917090;29;20028;-73
2022/12/13 12:01:46;;;;;;;8.82;4.65;;;;;;;;;;4917068;29;20036;-72
2022/12/13 12:04:28;;;;;;;11.82;4.25;;;;;;;;;;4916818;29;20111;-73
2022/12/13 12:07:16;;;;;;;11.63;5.25;;;;;;;;;;4935861;29;20054;-73
2022/12/13 12:09:49;;;;;;;13.65;4.85;;;;;;;;;;4949891;29;20488;-73
2022/12/13 12:12:26;;;;;;;8.38;3.50;;;;;;;;;;4935184;29;20043;-74
2022/12/13 12:15:09;;;;;;;7.47;3.42;;;;;;;;;;4936050;29;20067;-73
2022/12/13 12:17:35;;;;;;;;;;;;;;;;;;4932720;29;20494;-76
2022/12/13 12:20:02;;;;;;;12.95;5.65;;;;;;;;;;4916679;29;19946;-73
2022/12/13 12:22:37;;;;;;;11.55;4.95;;;;;;;;;;4915272;29;20071;-74
2022/12/13 12:25:24;;;;;;;14.75;4.80;;;;;;;;;;4917287;29;20470;-73
2022/12/13 12:28:07;;;;;;;19.73;5.47;;;;;;;;;;4916347;29;20123;-77
2022/12/13 12:31:08;;;;;;;16.70;6.93;;;;;;;;;;4922925;29;20114;-74
2022/12/13 12:34:04;;;;;;;31.77;10.75;;;;;;;;;;4949778;29;20504;-73
2022/12/13 12:36:30;;;;;;;16.65;7.53;;;;;;;;;;4935529;29;20114;-74
2022/12/13 12:39:18;;;;;;;13.02;5.95;;;;;;;;;;4934930;29;20059;-73
2022/12/13 12:41:48;;;;;;;14.95;7.22;;;;;;;;;;4934609;29;20038;-73
2022/12/13 12:44:40;;;;;;;25.20;8.02;;;;;;;;;;4922164;29;20404;-74
2022/12/13 12:47:27;;;;;;;22.33;6.68;;;;;;;;;;4931796;29;20047;-74
2022/12/13 12:50:02;;;;;;;18.05;6.55;;;;;;;;;;4935257;29;20079;-76
2022/12/13 12:52:47;;;;;;;17.73;6.82;;;;;;;;;;4935518;29;20397;-74
2022/12/13 12:55:39;;;;;;;14.02;7.15;;;;;;;;;;4931705;29;20537;-73
2022/12/13 12:58:34;;;;;;;13.75;7.13;;;;;;;;;;4918091;29;20338;-74
2022/12/13 13:01:18;;;;;;;18.20;6.55;;;;;;;;;;4933870;29;20039;-73
2022/12/13 13:03:46;;;;;;;18.95;6.03;;;;;;;;;;4932268;29;20523;-74
2022/12/13 13:06:28;;;;;;;6.70;4.18;;;;;;;;;;4933202;29;20050;-73
2022/12/13 13:09:02;;;;;;;9.82;4.25;;;;;;;;;;4928772;29;20034;-74
2022/12/13 13:11:36;;;;;;;12.98;7.22;;;;;;;;;;4934592;29;20036;-73
2022/12/13 13:14:27;;;;;;;21.27;7.38;;;;;;;;;;4934412;29;20067;-74
2022/12/13 13:16:54;;;;;;;19.35;7.93;;;;;;;;;;4915453;29;20040;-77
2022/12/13 13:19:30;;;;;;;14.45;7.30;;;;;;;;;;4928581;29;20119;-74
2022/12/13 13:22:00;;;;;;;14.48;7.43;;;;;;;;;;4932741;29;20036;-73
2022/12/13 13:24:28;;;;;;;9.80;5.07;;;;;;;;;;4933299;29;20051;-75
2022/12/13 13:27:29;;;;;;;12.38;4.70;;;;;;;;;;4934533;29;20446;-75
2022/12/13 13:30:21;;;;;;;10.32;4.20;;;;;;;;;;4932866;29;20098;-76
2022/12/13 13:32:48;;;;;;;8.98;4.20;;;;;;;;;;4933676;29;20032;-72
2022/12/13 13:35:34;;;;;;;15.75;4.90;;;;;;;;;;4932118;29;20048;-75
2022/12/13 13:38:27;;;;;;;16.50;5.20;;;;;;;;;;4927937;29;20067;-75
2022/12/13 13:40:53;;;;;;;11.40;4.57;;;;;;;;;;4935196;29;20043;-76
2022/12/13 13:43:29;;;;;;;9.65;3.60;;;;;;;;;;4934935;29;20036;-76
2022/12/13 13:46:01;;;;;;;6.43;2.95;;;;;;;;;;4932497;29;20130;-77
2022/12/13 13:48:52;;;;;;;8.98;3.53;;;;;;;;;;4932544;29;20043;-76
2022/12/13 13:51:45;;;;;;;7.82;3.65;;;;;;;;;;4929248;29;20082;-77
2022/12/13 13:54:46;;;;;;;7.10;3.22;;;;;;;;;;4951558;29;20115;-78
2022/12/13 13:57:46;;;;;;;8.32;3.60;;;;;;;;;;4942216;29;20036;-76
2022/12/13 14:00:36;;;;;;;7.93;4.10;;;;;;;;;;4917872;29;20040;-76
2022/12/13 14:03:30;;;;;;;7.32;3.72;;;;;;;;;;4927163;29;20091;-74
2022/12/13 14:06:32;;;;;;;6.90;3.55;;;;;;;;;;4929387;29;20164;-75
2022/12/13 14:09:17;;;;;;;9.75;3.38;;;;;;;;;;4944177;28;20516;-77
2022/12/13 14:11:49;;;;;;;5.32;2.95;;;;;;;;;;4939568;29;20036;-75
2022/12/13 14:18:14;;;;;;;4.78;2.42;;;;;;;;;;4931858;29;20553;-76
2022/12/13 14:20:44;;;;;;;7.40;2.50;;;;;;;;;;4932230;29;20134;-76
2022/12/13 14:23:32;;;;;;;6.27;2.90;;;;;;;;;;4928050;29;20135;-76
2022/12/13 14:26:18;;;;;;;7.13;3.45;;;;;;;;;;4937800;29;20047;-75
2022/12/13 14:28:52;;;;;;;8.60;3.80;;;;;;;;;;4933212;29;20042;-74
2022/12/13 14:31:25;;;;;;;7.22;3.90;;;;;;;;;;4945647;29;20082;-72
2022/12/13 14:33:52;;;;;;;14.57;3.72;;;;;;;;;;4931108;29;20086;-74
2022/12/13 14:36:27;;;;;;;13.00;4.13;;;;;;;;;;4931737;29;20044;-75
2022/12/13 14:39:02;;;;;;;7.05;3.55;;;;;;;;;;4914684;29;20032;-75
2022/12/13 14:41:28;;;;;;;9.45;4.07;;;;;;;;;;4921842;29;20044;-76
2022/12/13 14:43:54;;;;;;;12.30;4.57;;;;;;;;;;4917914;29;20036;-74
2022/12/13 14:46:20;;;;;;;8.40;4.00;;;;;;;;;;4917364;29;20047;-75
2022/12/13 14:48:53;;;;;;;5.60;3.67;;;;;;;;;;4923889;29;20032;-74
2022/12/13 14:51:34;;;;;;;8.30;3.55;;;;;;;;;;4930728;29;20084;-74
2022/12/13 14:54:03;;;;;;;11.85;4.85;;;;;;;;;;4924539;29;20088;-74
2022/12/13 14:56:29;;;;;;;8.43;4.38;;;;;;;;;;4951337;29;20040;-76
2022/12/13 14:59:11;;;;;;;10.77;4.88;;;;;;;;;;4934760;29;20528;-75
2022/12/13 15:01:37;;;;;;;16.20;7.15;;;;;;;;;;4926687;29;20036;-72
2022/12/13 15:04:25;;;;;;;18.30;9.40;;;;;;;;;;4932101;29;20043;-76
2022/12/13 15:07:12;;;;;;;19.35;11.00;;;;;;;;;;4930279;29;20397;-76
2022/12/13 15:09:41;;;;;;;18.60;10.32;;;;;;;;;;4917560;29;20056;-76
2022/12/13 15:12:13;;;;;;;23.48;9.95;;;;;;;;;;4935530;29;20518;-78